createdAt,value
2016-04-27T00:00:03.244Z,3.5
2016-04-27T00:00:13.232Z,3.4
2016-04-27T00:00:23.232Z,3.5
2016-04-27T00:00:33.232Z,3.5
2016-04-27T00:00:43.232Z,3.4
2016-04-27T00:00:53.247Z,3.4
2016-04-27T00:01:03.247Z,3.4
2016-04-27T00:01:13.249Z,3.5
2016-04-27T00:01:23.249Z,3.5
2016-04-27T00:01:33.234Z,3.5
2016-04-27T00:01:43.609Z,3.5
2016-04-27T00:01:53.249Z,3.5
2016-04-27T00:02:03.249Z,3.5
2016-04-27T00:02:13.252Z,3.5
2016-04-27T00:02:23.252Z,3.5
2016-04-27T00:02:33.252Z,3.6
2016-04-27T00:02:43.252Z,3.6
2016-04-27T00:02:53.252Z,3.6
2016-04-27T00:03:03.252Z,3.5
2016-04-27T00:06:03.526Z,3.6
2016-04-27T00:06:13.982Z,3.8
2016-04-27T00:06:26.388Z,3.6
2016-04-27T00:06:33.295Z,3.8
2016-04-27T00:06:48.060Z,3.8
2016-04-27T01:19:37.806Z,3.8
2016-04-27T01:19:47.806Z,3.8
2016-04-27T01:20:17.809Z,3.9
2016-04-27T01:20:27.809Z,4
2016-04-27T01:20:37.809Z,3.9
2016-04-27T01:20:58.262Z,3.8
2016-04-27T01:21:07.809Z,3.8
2016-04-27T01:21:17.811Z,3.8
2016-04-27T01:21:27.811Z,4
2016-04-27T01:21:39.014Z,3.9
2016-04-27T01:21:48.014Z,3.8
2016-04-27T01:21:57.670Z,3.8
2016-04-27T01:22:07.817Z,3.8
2016-04-27T01:22:17.820Z,3.8
2016-04-27T01:22:27.820Z,3.8
2016-04-27T01:22:37.820Z,3.8
2016-04-27T01:22:47.820Z,3.7
2016-04-27T01:22:57.821Z,3.7
2016-04-27T01:23:07.822Z,3.7
2016-04-27T01:23:22.496Z,3.7
2016-04-27T01:23:27.824Z,3.7
2016-04-27T01:23:37.824Z,3.8
2016-04-27T01:23:47.824Z,3.8
2016-04-27T01:23:57.824Z,3.8
2016-04-27T01:24:07.839Z,3.8
2016-04-27T01:24:17.827Z,3.8
2016-04-27T01:24:27.842Z,3.8
2016-04-27T01:24:37.842Z,3.7
2016-04-27T01:24:47.842Z,3.7
2016-04-27T01:24:57.827Z,3.8
2016-04-27T01:25:07.827Z,3.7
2016-04-27T01:25:17.861Z,3.8
2016-04-27T01:25:27.830Z,3.7
2016-04-27T01:25:37.845Z,3.8
2016-04-27T01:25:47.845Z,3.8
2016-04-27T01:25:57.845Z,3.7
2016-04-27T01:26:07.845Z,3.8
2016-04-27T01:26:17.880Z,3.7
2016-04-27T01:26:27.848Z,3.8
2016-04-27T01:26:37.848Z,3.7
2016-04-27T01:26:47.848Z,3.7
2016-04-27T01:26:57.848Z,3.8
2016-04-27T01:27:07.848Z,3.8
2016-04-27T01:27:17.850Z,3.7
2016-04-27T01:27:27.772Z,3.8
2016-04-27T01:27:37.850Z,3.8
2016-04-27T01:27:47.975Z,3.8
2016-04-27T01:27:57.850Z,3.8
2016-04-27T01:28:07.850Z,3.8
2016-04-27T01:28:17.853Z,3.8
2016-04-27T01:28:27.853Z,3.8
2016-04-27T01:28:37.869Z,3.8
2016-04-27T01:28:47.869Z,3.6
2016-04-27T01:28:57.853Z,3.7
2016-04-27T01:29:07.869Z,3.7
2016-04-27T01:29:17.856Z,3.8
2016-04-27T01:29:27.856Z,3.7
2016-04-27T01:29:37.888Z,3.7
2016-04-27T01:29:47.872Z,3.8
2016-04-27T01:29:57.856Z,3.7
2016-04-27T01:30:07.872Z,3.8
2016-04-27T01:30:17.875Z,3.8
2016-04-27T01:30:27.875Z,3.8
2016-04-27T01:30:37.875Z,3.8
2016-04-27T01:30:47.875Z,3.8
2016-04-27T01:30:57.875Z,3.8
2016-04-27T01:31:07.875Z,3.8
2016-04-27T01:31:17.877Z,3.8
2016-04-27T01:31:27.877Z,3.8
2016-04-27T01:31:37.877Z,3.8
2016-04-27T01:31:47.877Z,3.7
2016-04-27T01:31:57.877Z,3.8
2016-04-27T01:32:07.877Z,3.8
2016-04-27T01:32:17.880Z,3.8
2016-04-27T01:32:27.880Z,3.8
2016-04-27T01:32:37.880Z,3.7
2016-04-27T01:32:47.880Z,3.7
2016-04-27T01:32:57.880Z,3.7
2016-04-27T01:33:07.880Z,3.8
2016-04-27T01:33:17.883Z,3.7
2016-04-27T01:33:27.883Z,3.8
2016-04-27T01:33:37.899Z,3.7
2016-04-27T01:33:47.899Z,3.7
2016-04-27T01:33:57.899Z,3.7
2016-04-27T01:34:07.883Z,3.8
2016-04-27T01:34:17.902Z,3.8
2016-04-27T01:34:27.902Z,3.7
2016-04-27T01:34:37.886Z,3.8
2016-04-27T01:34:47.886Z,3.7
2016-04-27T01:34:57.886Z,3.8
2016-04-27T01:35:07.902Z,3.7
2016-04-27T01:35:17.904Z,3.7
2016-04-27T01:35:27.904Z,3.7
2016-04-27T01:35:37.904Z,3.6
2016-04-27T01:35:48.904Z,3.7
2016-04-27T01:35:58.701Z,3.7
2016-04-27T01:36:08.091Z,3.8
2016-04-27T01:36:17.907Z,3.8
2016-04-27T01:36:29.157Z,3.6
2016-04-27T01:36:38.563Z,3.8
2016-04-27T01:36:47.907Z,3.7
2016-04-27T01:36:57.907Z,3.6
2016-04-27T01:37:07.907Z,3.7
2016-04-27T01:37:17.910Z,3.6
2016-04-27T01:37:27.910Z,3.7
2016-04-27T01:37:37.910Z,3.7
2016-04-27T01:37:47.925Z,3.7
2016-04-27T01:37:57.910Z,3.7
2016-04-27T01:38:07.910Z,3.7
2016-04-27T01:38:17.943Z,3.7
2016-04-27T01:38:27.912Z,3.6
2016-04-27T01:38:37.912Z,3.7
2016-04-27T01:38:47.927Z,3.7
2016-04-27T01:38:57.943Z,3.7
2016-04-27T01:39:07.912Z,3.7
2016-04-27T01:39:17.930Z,3.6
2016-04-27T01:39:27.915Z,3.6
2016-04-27T01:39:37.915Z,3.5
2016-04-27T01:39:47.930Z,3.7
2016-04-27T01:39:57.930Z,3.6
2016-04-27T01:40:07.930Z,3.6
2016-04-27T01:40:17.932Z,3.7
2016-04-27T01:40:27.932Z,3.7
2016-04-27T01:40:37.932Z,3.7
2016-04-27T01:40:47.932Z,3.7
2016-04-27T01:40:57.932Z,3.7
2016-04-27T01:41:07.932Z,3.7
2016-04-27T01:41:17.935Z,3.8
2016-04-27T01:41:27.935Z,3.7
2016-04-27T01:41:37.935Z,3.7
2016-04-27T01:41:47.935Z,3.6
2016-04-27T01:41:57.935Z,3.7
2016-04-27T01:42:07.935Z,3.7
2016-04-27T01:42:17.938Z,3.7
2016-04-27T01:42:27.938Z,3.7
2016-04-27T01:42:37.938Z,3.8
2016-04-27T01:42:47.938Z,3.8
2016-04-27T01:42:57.938Z,3.7
2016-04-27T01:43:07.938Z,3.7
2016-04-27T01:43:17.956Z,3.8
2016-04-27T01:43:27.956Z,3.8
2016-04-27T01:43:37.940Z,3.8
2016-04-27T01:43:47.956Z,3.7
2016-04-27T01:43:57.956Z,3.8
2016-04-27T01:44:07.972Z,3.7
2016-04-27T01:44:17.959Z,3.7
2016-04-27T01:44:27.959Z,3.7
2016-04-27T01:44:37.959Z,3.8
2016-04-27T01:44:47.959Z,3.8
2016-04-27T01:44:57.959Z,3.7
2016-04-27T01:45:07.959Z,3.8
2016-04-27T01:45:17.962Z,3.8
2016-04-27T01:45:27.962Z,3.8
2016-04-27T01:45:37.962Z,3.8
2016-04-27T01:45:47.962Z,3.8
2016-04-27T01:45:57.962Z,3.8
2016-04-27T01:46:07.962Z,3.8
2016-04-27T01:46:17.965Z,3.8
2016-04-27T01:46:27.965Z,3.8
2016-04-27T01:46:37.965Z,3.8
2016-04-27T01:46:47.965Z,3.8
2016-04-27T01:46:57.965Z,3.7
2016-04-27T01:47:07.965Z,3.8
2016-04-27T01:47:17.967Z,3.8
2016-04-27T01:47:27.983Z,3.8
2016-04-27T01:47:37.967Z,3.8
2016-04-27T01:47:47.967Z,3.8
2016-04-27T01:47:57.983Z,3.7
2016-04-27T01:48:07.967Z,3.7
2016-04-27T01:48:17.986Z,3.7
2016-04-27T01:48:27.970Z,3.7
2016-04-27T01:48:37.986Z,3.8
2016-04-27T01:48:47.986Z,3.7
2016-04-27T01:48:57.986Z,3.7
2016-04-27T01:49:07.986Z,3.7
2016-04-27T01:49:17.989Z,3.7
2016-04-27T01:49:27.990Z,3.7
2016-04-27T01:49:37.990Z,3.7
2016-04-27T01:49:47.990Z,3.7
2016-04-27T01:49:57.990Z,3.7
2016-04-27T01:50:07.990Z,3.7
2016-04-27T01:50:17.993Z,3.7
2016-04-27T01:50:27.993Z,3.7
2016-04-27T01:50:37.993Z,3.7
2016-04-27T01:50:48.243Z,3.7
2016-04-27T01:50:57.852Z,3.7
2016-04-27T01:51:08.024Z,3.8
2016-04-27T01:51:17.995Z,3.7
2016-04-27T01:51:27.901Z,3.7
2016-04-27T01:51:37.995Z,3.7
2016-04-27T01:51:47.854Z,3.7
2016-04-27T01:51:57.870Z,3.7
2016-04-27T01:52:08.885Z,3.7
2016-04-27T01:52:17.998Z,3.7
2016-04-27T01:52:27.998Z,3.7
2016-04-27T01:52:37.998Z,3.7
2016-04-27T01:52:48.013Z,3.7
2016-04-27T01:52:58.013Z,3.7
2016-04-27T01:53:08.373Z,3.7
2016-04-27T01:53:18.016Z,3.7
2016-04-27T01:53:28.016Z,3.7
2016-04-27T01:53:38.016Z,3.7
2016-04-27T01:53:48.016Z,3.7
2016-04-27T01:53:58.032Z,3.7
2016-04-27T01:54:08.016Z,3.7
2016-04-27T01:54:18.018Z,3.7
2016-04-27T01:54:28.018Z,3.6
2016-04-27T01:54:38.018Z,3.7
2016-04-27T01:54:48.049Z,3.7
2016-04-27T01:54:58.018Z,3.7
2016-04-27T01:55:08.018Z,3.6
2016-04-27T01:55:18.020Z,3.6
2016-04-27T01:55:28.020Z,3.7
2016-04-27T01:55:38.020Z,3.7
2016-04-27T01:55:48.020Z,3.7
2016-04-27T01:55:58.020Z,3.7
2016-04-27T01:56:08.020Z,3.7
2016-04-27T01:56:18.024Z,3.7
2016-04-27T01:56:28.024Z,3.7
2016-04-27T01:56:38.024Z,3.7
2016-04-27T01:56:48.024Z,3.7
2016-04-27T01:56:58.040Z,3.8
2016-04-27T01:57:08.024Z,3.7
2016-04-27T01:57:18.042Z,3.7
2016-04-27T01:57:28.026Z,3.7
2016-04-27T01:57:38.042Z,3.7
2016-04-27T01:57:47.886Z,3.8
2016-04-27T01:57:58.042Z,3.7
2016-04-27T01:58:08.042Z,3.8
2016-04-27T01:58:18.045Z,3.7
2016-04-27T01:58:28.045Z,3.7
2016-04-27T01:58:38.045Z,3.7
2016-04-27T01:58:48.045Z,3.7
2016-04-27T01:58:58.045Z,3.6
2016-04-27T01:59:08.045Z,3.7
2016-04-27T01:59:18.047Z,3.7
2016-04-27T01:59:28.047Z,3.7
2016-04-27T01:59:38.047Z,3.7
2016-04-27T01:59:48.047Z,3.7
2016-04-27T01:59:58.047Z,3.7
2016-04-27T02:00:08.047Z,3.7
2016-04-27T02:00:18.065Z,3.8
2016-04-27T02:00:28.050Z,3.7
2016-04-27T02:00:38.065Z,3.7
2016-04-27T02:00:48.050Z,3.7
2016-04-27T02:00:57.894Z,3.7
2016-04-27T02:01:08.050Z,3.7
2016-04-27T02:01:18.053Z,3.7
2016-04-27T02:01:28.068Z,3.8
2016-04-27T02:01:38.068Z,3.8
2016-04-27T02:01:48.068Z,3.7
2016-04-27T02:01:58.068Z,3.7
2016-04-27T02:02:08.068Z,3.8
2016-04-27T02:02:18.071Z,3.7
2016-04-27T02:02:28.071Z,3.8
2016-04-27T02:02:38.071Z,3.7
2016-04-27T02:02:48.087Z,3.8
2016-04-27T02:02:58.071Z,3.7
2016-04-27T02:03:08.071Z,3.8
2016-04-27T02:03:18.073Z,3.8
2016-04-27T02:03:28.073Z,3.7
2016-04-27T02:03:38.073Z,3.8
2016-04-27T02:03:48.073Z,3.7
2016-04-27T02:03:58.073Z,3.7
2016-04-27T02:04:08.073Z,3.8
2016-04-27T02:04:18.076Z,3.8
2016-04-27T02:04:28.076Z,3.8
2016-04-27T02:04:38.076Z,3.8
2016-04-27T02:04:48.076Z,3.7
2016-04-27T02:04:58.076Z,3.7
2016-04-27T02:05:08.076Z,3.8
2016-04-27T02:05:18.079Z,3.8
2016-04-27T02:05:28.079Z,3.8
2016-04-27T02:05:38.079Z,3.8
2016-04-27T02:05:48.408Z,3.8
2016-04-27T02:05:58.095Z,3.8
2016-04-27T02:06:08.095Z,3.7
2016-04-27T02:06:18.942Z,3.8
2016-04-27T02:06:28.098Z,3.7
2016-04-27T02:06:38.442Z,3.8
2016-04-27T02:06:47.942Z,3.8
2016-04-27T02:06:58.098Z,3.8
2016-04-27T02:07:08.082Z,3.7
2016-04-27T02:07:17.944Z,3.8
2016-04-27T02:07:28.100Z,3.6
2016-04-27T02:07:38.100Z,3.7
2016-04-27T02:07:48.100Z,3.7
2016-04-27T02:07:58.100Z,3.7
2016-04-27T02:08:08.100Z,3.7
2016-04-27T02:08:18.103Z,3.8
2016-04-27T02:08:28.103Z,3.8
2016-04-27T02:08:38.103Z,3.7
2016-04-27T02:08:48.103Z,3.8
2016-04-27T02:08:58.103Z,3.8
2016-04-27T02:09:08.103Z,3.8
2016-04-27T02:09:18.106Z,3.8
2016-04-27T02:09:28.106Z,3.8
2016-04-27T02:09:38.122Z,3.8
2016-04-27T02:09:48.106Z,3.7
2016-04-27T02:09:58.106Z,3.8
2016-04-27T02:10:08.122Z,3.8
2016-04-27T02:10:18.109Z,3.7
2016-04-27T02:10:28.125Z,3.8
2016-04-27T02:10:38.125Z,3.7
2016-04-27T02:10:48.125Z,3.8
2016-04-27T02:10:58.109Z,3.7
2016-04-27T02:11:08.125Z,3.8
2016-04-27T02:11:18.127Z,3.7
2016-04-27T02:11:28.127Z,3.8
2016-04-27T02:11:38.127Z,3.7
2016-04-27T02:11:47.970Z,3.7
2016-04-27T02:11:58.127Z,3.8
2016-04-27T02:12:08.127Z,3.8
2016-04-27T02:12:18.129Z,3.7
2016-04-27T02:12:27.972Z,3.8
2016-04-27T02:12:38.129Z,3.7
2016-04-27T02:12:48.129Z,3.8
2016-04-27T02:12:58.129Z,3.8
2016-04-27T02:13:08.129Z,3.8
2016-04-27T02:13:18.147Z,3.7
2016-04-27T02:13:28.132Z,3.8
2016-04-27T02:13:38.132Z,3.7
2016-04-27T02:13:48.132Z,3.8
2016-04-27T02:13:58.132Z,3.8
2016-04-27T02:14:08.132Z,3.8
2016-04-27T02:14:18.150Z,3.7
2016-04-27T02:14:28.135Z,3.7
2016-04-27T02:14:38.135Z,3.7
2016-04-27T02:14:48.135Z,3.7
2016-04-27T02:14:58.150Z,3.7
2016-04-27T02:15:08.135Z,3.7
2016-04-27T02:15:18.137Z,3.7
2016-04-27T02:15:28.152Z,3.7
2016-04-27T02:15:38.152Z,3.7
2016-04-27T02:15:48.168Z,3.7
2016-04-27T02:15:58.152Z,3.7
2016-04-27T02:16:08.152Z,3.6
2016-04-27T02:16:18.155Z,3.7
2016-04-27T02:16:28.155Z,3.7
2016-04-27T02:16:38.155Z,3.6
2016-04-27T02:16:48.155Z,3.7
2016-04-27T02:16:58.155Z,3.6
2016-04-27T02:17:08.155Z,3.6
2016-04-27T02:17:18.174Z,3.7
2016-04-27T02:17:28.158Z,3.6
2016-04-27T02:17:38.158Z,3.7
2016-04-27T02:17:48.158Z,3.6
2016-04-27T02:17:58.158Z,3.6
2016-04-27T02:18:08.174Z,3.7
2016-04-27T02:18:18.177Z,3.6
2016-04-27T02:18:28.177Z,3.6
2016-04-27T02:18:38.161Z,3.6
2016-04-27T02:18:48.161Z,3.6
2016-04-27T02:18:58.177Z,3.6
2016-04-27T02:19:08.161Z,3.6
2016-04-27T02:19:18.179Z,3.6
2016-04-27T02:19:28.179Z,3.6
2016-04-27T02:19:38.179Z,3.7
2016-04-27T02:19:48.179Z,3.7
2016-04-27T02:19:58.195Z,3.6
2016-04-27T02:20:08.179Z,3.7
2016-04-27T02:20:18.198Z,3.7
2016-04-27T02:20:28.182Z,3.7
2016-04-27T02:20:38.182Z,3.6
2016-04-27T02:20:48.416Z,3.6
2016-04-27T02:20:58.854Z,3.7
2016-04-27T02:21:08.854Z,3.7
2016-04-27T02:21:18.029Z,3.7
2016-04-27T02:21:28.497Z,3.5
2016-04-27T02:21:40.279Z,3.7
2016-04-27T02:21:48.388Z,3.6
2016-04-27T02:21:58.357Z,3.7
2016-04-27T02:22:08.185Z,3.8
2016-04-27T02:22:18.188Z,3.7
2016-04-27T02:22:28.204Z,3.7
2016-04-27T02:22:38.188Z,3.7
2016-04-27T02:22:48.204Z,3.7
2016-04-27T02:22:58.204Z,3.7
2016-04-27T02:23:08.079Z,3.7
2016-04-27T02:23:18.206Z,3.7
2016-04-27T02:23:28.190Z,3.7
2016-04-27T02:23:38.190Z,3.7
2016-04-27T02:23:48.206Z,3.8
2016-04-27T02:23:58.206Z,3.8
2016-04-27T02:24:08.206Z,3.7
2016-04-27T02:24:18.209Z,3.8
2016-04-27T02:24:28.209Z,3.8
2016-04-27T02:24:38.209Z,3.7
2016-04-27T02:24:48.209Z,3.7
2016-04-27T02:24:58.209Z,3.7
2016-04-27T02:25:08.209Z,3.7
2016-04-27T02:25:18.212Z,3.7
2016-04-27T02:25:28.212Z,3.8
2016-04-27T02:25:38.212Z,3.7
2016-04-27T02:25:48.212Z,3.8
2016-04-27T02:25:58.212Z,3.8
2016-04-27T02:26:08.212Z,3.8
2016-04-27T02:26:18.215Z,3.7
2016-04-27T02:26:28.215Z,3.8
2016-04-27T02:26:38.215Z,3.8
2016-04-27T02:26:48.230Z,3.8
2016-04-27T02:26:58.215Z,3.7
2016-04-27T02:27:08.230Z,3.8
2016-04-27T02:27:18.231Z,3.8
2016-04-27T02:27:28.216Z,3.8
2016-04-27T02:27:38.216Z,3.8
2016-04-27T02:27:48.216Z,3.8
2016-04-27T02:27:58.216Z,3.8
2016-04-27T02:28:08.231Z,3.8
2016-04-27T02:28:18.234Z,3.8
2016-04-27T02:28:28.234Z,3.8
2016-04-27T02:28:38.234Z,3.8
2016-04-27T02:28:48.234Z,3.8
2016-04-27T02:28:58.234Z,3.8
2016-04-27T02:29:08.234Z,3.8
2016-04-27T02:29:18.238Z,3.8
2016-04-27T02:29:28.238Z,3.8
2016-04-27T02:29:38.238Z,3.8
2016-04-27T02:29:48.238Z,3.8
2016-04-27T02:29:58.238Z,3.8
2016-04-27T02:30:08.238Z,3.9
2016-04-27T02:30:18.240Z,3.9
2016-04-27T02:30:28.834Z,3.8
2016-04-27T02:30:38.240Z,3.9
2016-04-27T02:30:48.240Z,3.9
2016-04-27T02:30:58.256Z,3.9
2016-04-27T02:31:08.256Z,3.8
2016-04-27T02:31:18.242Z,3.9
2016-04-27T02:31:28.258Z,4
2016-04-27T02:31:38.242Z,3.8
2016-04-27T02:31:48.242Z,3.9
2016-04-27T02:31:58.242Z,3.8
2016-04-27T02:32:08.258Z,3.8
2016-04-27T02:32:18.308Z,3.8
2016-04-27T02:32:28.261Z,3.8
2016-04-27T02:32:38.261Z,3.9
2016-04-27T02:32:48.261Z,3.8
2016-04-27T02:32:58.261Z,3.9
2016-04-27T02:33:08.261Z,3.8
2016-04-27T02:33:18.264Z,3.9
2016-04-27T02:33:28.264Z,3.9
2016-04-27T02:33:38.264Z,4
2016-04-27T02:33:48.264Z,3.8
2016-04-27T02:33:58.264Z,3.9
2016-04-27T02:34:08.264Z,3.8
2016-04-27T02:34:18.267Z,3.9
2016-04-27T02:34:28.267Z,3.9
2016-04-27T02:34:38.267Z,3.8
2016-04-27T02:34:48.267Z,3.8
2016-04-27T02:34:58.267Z,3.8
2016-04-27T02:35:08.126Z,3.8
2016-04-27T02:35:18.284Z,3.8
2016-04-27T02:35:28.269Z,3.8
2016-04-27T02:35:38.269Z,3.8
2016-04-27T02:35:48.269Z,3.9
2016-04-27T02:35:58.269Z,3.8
2016-04-27T02:36:08.316Z,3.8
2016-04-27T02:36:20.992Z,3.8
2016-04-27T02:36:28.273Z,3.8
2016-04-27T02:36:38.288Z,3.8
2016-04-27T02:36:48.820Z,3.8
2016-04-27T02:36:58.570Z,3.8
2016-04-27T02:37:08.788Z,3.8
2016-04-27T02:37:18.149Z,3.9
2016-04-27T02:37:28.289Z,3.8
2016-04-27T02:37:38.289Z,3.9
2016-04-27T02:37:48.289Z,3.8
2016-04-27T02:37:58.289Z,3.8
2016-04-27T02:38:08.289Z,3.8
2016-04-27T02:38:18.293Z,3.9
2016-04-27T02:38:28.293Z,3.9
2016-04-27T02:38:38.309Z,3.9
2016-04-27T02:38:48.293Z,3.9
2016-04-27T02:38:58.293Z,4
2016-04-27T02:39:08.293Z,3.8
2016-04-27T02:39:18.295Z,3.9
2016-04-27T02:39:28.295Z,3.9
2016-04-27T02:39:38.295Z,3.8
2016-04-27T02:39:48.311Z,3.9
2016-04-27T02:39:58.295Z,3.9
2016-04-27T02:40:08.311Z,3.8
2016-04-27T02:40:18.314Z,3.8
2016-04-27T02:40:28.298Z,3.9
2016-04-27T02:40:38.298Z,3.8
2016-04-27T02:40:48.314Z,3.9
2016-04-27T02:40:58.314Z,4
2016-04-27T02:41:08.314Z,3.9
2016-04-27T02:41:18.317Z,3.9
2016-04-27T02:41:28.317Z,3.8
2016-04-27T02:41:38.317Z,3.9
2016-04-27T02:41:48.317Z,4
2016-04-27T02:41:58.317Z,3.8
2016-04-27T02:42:08.317Z,3.9
2016-04-27T02:42:18.327Z,3.9
2016-04-27T02:42:28.327Z,3.8
2016-04-27T02:42:38.327Z,3.9
2016-04-27T02:42:48.327Z,3.8
2016-04-27T02:42:58.327Z,3.9
2016-04-27T02:43:08.327Z,3.8
2016-04-27T02:43:18.371Z,3.9
2016-04-27T02:43:28.371Z,3.8
2016-04-27T02:43:38.371Z,3.9
2016-04-27T02:43:48.371Z,3.9
2016-04-27T02:43:58.371Z,3.9
2016-04-27T02:44:08.371Z,3.8
2016-04-27T02:44:18.415Z,3.8
2016-04-27T02:44:28.415Z,3.8
2016-04-27T02:44:38.431Z,3.8
2016-04-27T02:44:48.431Z,3.9
2016-04-27T02:44:58.415Z,3.9
2016-04-27T02:45:08.431Z,3.8
2016-04-27T02:45:18.477Z,3.8
2016-04-27T02:45:28.461Z,3.9
2016-04-27T02:45:38.477Z,3.8
2016-04-27T02:45:48.477Z,3.9
2016-04-27T02:45:58.477Z,3.9
2016-04-27T02:46:08.477Z,3.9
2016-04-27T02:46:18.521Z,3.9
2016-04-27T02:46:28.521Z,3.9
2016-04-27T02:46:38.536Z,3.9
2016-04-27T02:46:48.521Z,3.8
2016-04-27T02:46:58.521Z,3.8
2016-04-27T02:47:08.521Z,3.8
2016-04-27T02:47:18.560Z,3.8
2016-04-27T02:47:28.560Z,3.9
2016-04-27T02:47:38.560Z,3.9
2016-04-27T02:47:48.591Z,3.9
2016-04-27T02:47:58.560Z,3.8
2016-04-27T02:48:08.560Z,3.9
2016-04-27T02:48:18.579Z,3.8
2016-04-27T02:48:28.594Z,3.9
2016-04-27T02:48:38.594Z,3.9
2016-04-27T02:48:48.579Z,3.8
2016-04-27T02:48:58.594Z,3.9
2016-04-27T02:49:08.579Z,3.9
2016-04-27T02:49:18.612Z,3.9
2016-04-27T02:49:28.612Z,3.9
2016-04-27T02:49:38.612Z,3.9
2016-04-27T02:49:48.612Z,3.9
2016-04-27T02:49:58.612Z,3.9
2016-04-27T02:50:08.612Z,3.9
2016-04-27T02:50:18.631Z,4
2016-04-27T02:50:28.631Z,3.9
2016-04-27T02:50:38.631Z,3.9
2016-04-27T02:50:48.631Z,3.9
2016-04-27T02:50:58.709Z,4
2016-04-27T02:51:08.959Z,4
2016-04-27T02:51:18.664Z,3.9
2016-04-27T02:51:31.601Z,3.9
2016-04-27T02:51:38.742Z,3.9
2016-04-27T02:51:48.680Z,4
2016-04-27T02:51:58.648Z,3.9
2016-04-27T02:52:08.508Z,3.9
2016-04-27T02:52:18.914Z,4
2016-04-27T02:52:28.664Z,4
2016-04-27T02:52:38.664Z,4
2016-04-27T02:52:48.664Z,4
2016-04-27T02:52:58.680Z,4
2016-04-27T02:53:08.664Z,3.9
2016-04-27T02:53:18.673Z,4
2016-04-27T02:53:28.689Z,4
2016-04-27T02:53:38.673Z,3.9
2016-04-27T02:53:48.689Z,3.9
2016-04-27T02:53:58.689Z,4
2016-04-27T02:54:08.689Z,3.9
2016-04-27T02:54:18.696Z,4
2016-04-27T02:54:28.696Z,4
2016-04-27T02:54:38.696Z,4
2016-04-27T02:54:48.696Z,4
2016-04-27T02:54:58.696Z,3.9
2016-04-27T02:55:08.696Z,4
2016-04-27T02:55:18.705Z,4
2016-04-27T02:55:28.705Z,4
2016-04-27T02:55:38.705Z,3.9
2016-04-27T02:55:48.705Z,4
2016-04-27T02:55:58.705Z,3.9
2016-04-27T02:56:08.705Z,4
2016-04-27T02:56:18.712Z,3.9
2016-04-27T02:56:28.712Z,3.9
2016-04-27T02:56:38.712Z,3.9
2016-04-27T02:56:48.712Z,3.9
2016-04-27T02:56:58.712Z,4
2016-04-27T02:57:08.728Z,4
2016-04-27T02:57:18.736Z,3.9
2016-04-27T02:57:28.720Z,4
2016-04-27T02:57:38.736Z,4
2016-04-27T02:57:48.736Z,4
2016-04-27T02:57:58.736Z,3.9
2016-04-27T02:58:08.736Z,4
2016-04-27T02:58:19.036Z,4
2016-04-27T02:58:28.740Z,4
2016-04-27T02:58:38.740Z,3.9
2016-04-27T02:58:48.740Z,4
2016-04-27T02:58:58.740Z,4
2016-04-27T02:59:08.740Z,4
2016-04-27T02:59:18.746Z,4
2016-04-27T02:59:28.746Z,4
2016-04-27T02:59:38.746Z,3.9
2016-04-27T02:59:48.746Z,4
2016-04-27T02:59:58.746Z,4
2016-04-27T03:00:08.746Z,4
2016-04-27T03:00:18.750Z,4
2016-04-27T03:00:28.750Z,4
2016-04-27T03:00:38.765Z,3.9
2016-04-27T03:00:48.750Z,4
2016-04-27T03:00:58.750Z,3.9
2016-04-27T03:01:08.765Z,4
2016-04-27T03:01:18.754Z,3.9
2016-04-27T03:01:28.754Z,3.9
2016-04-27T03:01:38.769Z,3.9
2016-04-27T03:01:48.754Z,4
2016-04-27T03:01:58.769Z,4
2016-04-27T03:02:08.769Z,3.9
2016-04-27T03:02:18.774Z,4
2016-04-27T03:02:28.774Z,4
2016-04-27T03:02:38.774Z,4
2016-04-27T03:02:48.774Z,4
2016-04-27T03:02:58.774Z,3.9
2016-04-27T03:03:08.774Z,4
2016-04-27T03:03:18.777Z,4
2016-04-27T03:03:28.777Z,4
2016-04-27T03:03:38.777Z,4
2016-04-27T03:03:48.777Z,4
2016-04-27T03:03:58.777Z,4
2016-04-27T03:04:08.793Z,3.9
2016-04-27T03:04:18.797Z,3.9
2016-04-27T03:04:28.781Z,4
2016-04-27T03:04:38.781Z,4
2016-04-27T03:04:48.781Z,4
2016-04-27T03:04:58.797Z,3.9
2016-04-27T03:05:08.781Z,4.1
2016-04-27T03:05:18.784Z,4
2016-04-27T03:05:28.800Z,4
2016-04-27T03:05:38.784Z,4
2016-04-27T03:05:48.784Z,4
2016-04-27T03:05:58.800Z,4
2016-04-27T03:06:08.815Z,4
2016-04-27T03:06:18.804Z,4.1
2016-04-27T03:06:28.648Z,4
2016-04-27T03:06:38.929Z,4
2016-04-27T03:06:48.788Z,4
2016-04-27T03:06:58.648Z,4
2016-04-27T03:07:08.804Z,4.1
2016-04-27T03:07:18.869Z,4
2016-04-27T03:07:29.791Z,4.1
2016-04-27T03:07:38.807Z,4.1
2016-04-27T03:07:48.807Z,4
2016-04-27T03:07:58.807Z,4
2016-04-27T03:08:08.807Z,4
2016-04-27T03:08:18.810Z,3.9
2016-04-27T03:08:28.810Z,4
2016-04-27T03:08:38.810Z,4.1
2016-04-27T03:08:48.810Z,4
2016-04-27T03:08:58.810Z,4.1
2016-04-27T03:09:08.825Z,4.1
2016-04-27T03:09:18.810Z,4.1
2016-04-27T03:09:28.814Z,4
2016-04-27T03:09:38.814Z,4.1
2016-04-27T03:09:48.814Z,4
2016-04-27T03:09:58.814Z,4.1
2016-04-27T03:10:08.829Z,4.1
2016-04-27T03:10:18.814Z,4.1
2016-04-27T03:10:28.831Z,4.2
2016-04-27T03:10:38.831Z,4.1
2016-04-27T03:10:48.831Z,4.1
2016-04-27T03:10:58.847Z,4.2
2016-04-27T03:11:08.831Z,4.2
2016-04-27T03:11:18.831Z,4.2
2016-04-27T03:11:28.834Z,4.1
2016-04-27T03:11:38.834Z,4.1
2016-04-27T03:11:48.834Z,4.2
2016-04-27T03:11:58.834Z,4.2
2016-04-27T03:12:08.834Z,4.1
2016-04-27T03:12:18.834Z,4.2
2016-04-27T03:12:28.838Z,4.2
2016-04-27T03:12:38.838Z,4.2
2016-04-27T03:12:48.838Z,4.1
2016-04-27T03:12:58.854Z,4.2
2016-04-27T03:13:08.854Z,4.2
2016-04-27T03:13:18.838Z,4.2
2016-04-27T03:13:28.857Z,4.2
2016-04-27T03:13:38.841Z,4.2
2016-04-27T03:13:48.841Z,4.2
2016-04-27T03:13:58.841Z,4.2
2016-04-27T03:14:08.841Z,4.1
2016-04-27T03:14:18.857Z,4.2
2016-04-27T03:14:28.859Z,4.2
2016-04-27T03:14:38.859Z,4.2
2016-04-27T03:14:48.859Z,4.1
2016-04-27T03:14:58.859Z,4.2
2016-04-27T03:15:08.859Z,4.2
2016-04-27T03:15:18.859Z,4.2
2016-04-27T03:15:28.861Z,4.1
2016-04-27T03:15:38.861Z,4.2
2016-04-27T03:15:48.861Z,4.1
2016-04-27T03:15:58.861Z,4.2
2016-04-27T03:16:08.861Z,4.2
2016-04-27T03:16:18.861Z,4.2
2016-04-27T03:16:28.864Z,4.1
2016-04-27T03:16:38.864Z,4.2
2016-04-27T03:16:48.864Z,4.2
2016-04-27T03:16:58.864Z,4.1
2016-04-27T03:17:08.864Z,4.2
2016-04-27T03:17:18.864Z,4.2
2016-04-27T03:17:28.867Z,4.2
2016-04-27T03:17:38.867Z,4.2
2016-04-27T03:17:48.883Z,4.1
2016-04-27T03:17:58.867Z,4.1
2016-04-27T03:18:08.883Z,4.1
2016-04-27T03:18:20.072Z,4.1
2016-04-27T03:18:28.869Z,4.2
2016-04-27T03:18:38.885Z,4.2
2016-04-27T03:18:48.885Z,4.2
2016-04-27T03:18:58.885Z,4.2
2016-04-27T03:19:08.885Z,4.2
2016-04-27T03:19:18.885Z,4.2
2016-04-27T03:19:28.888Z,4.2
2016-04-27T03:19:38.888Z,4.2
2016-04-27T03:19:48.888Z,4.2
2016-04-27T03:19:58.888Z,4.1
2016-04-27T03:20:08.888Z,4.2
2016-04-27T03:20:18.903Z,4.1
2016-04-27T03:20:28.891Z,4.1
2016-04-27T03:20:38.891Z,4.2
2016-04-27T03:20:48.891Z,4.2
2016-04-27T03:20:58.891Z,4.2
2016-04-27T03:21:09.281Z,4.2
2016-04-27T03:21:18.906Z,4.2
2016-04-27T03:21:31.581Z,4.3
2016-04-27T03:21:39.612Z,4.1
2016-04-27T03:21:50.269Z,4.2
2016-04-27T03:21:58.753Z,4.2
2016-04-27T03:22:08.909Z,4.2
2016-04-27T03:22:18.753Z,4.1
2016-04-27T03:22:28.896Z,4.2
2016-04-27T03:22:38.896Z,4.2
2016-04-27T03:22:48.911Z,4.2
2016-04-27T03:22:58.911Z,4.2
2016-04-27T03:23:08.896Z,4.2
2016-04-27T03:23:18.911Z,4.2
2016-04-27T03:23:28.914Z,4.2
2016-04-27T03:23:38.914Z,4.2
2016-04-27T03:23:48.914Z,4.2
2016-04-27T03:23:58.914Z,4.2
2016-04-27T03:24:08.914Z,4.2
2016-04-27T03:24:18.930Z,4.2
2016-04-27T03:24:28.917Z,4.2
2016-04-27T03:24:38.917Z,4.1
2016-04-27T03:24:48.917Z,4.2
2016-04-27T03:24:58.917Z,4.1
2016-04-27T03:25:08.917Z,4.2
2016-04-27T03:25:18.917Z,4.2
2016-04-27T03:25:28.920Z,4.2
2016-04-27T03:25:38.920Z,4.2
2016-04-27T03:25:48.920Z,4.2
2016-04-27T03:25:58.920Z,4.2
2016-04-27T03:26:08.920Z,4.2
2016-04-27T03:26:18.920Z,4.2
2016-04-27T03:26:28.922Z,4.2
2016-04-27T03:26:38.922Z,4.2
2016-04-27T03:26:48.938Z,4.2
2016-04-27T03:26:58.922Z,4.2
2016-04-27T03:27:08.938Z,4.2
2016-04-27T03:27:18.922Z,4.2
2016-04-27T03:27:28.924Z,4.2
2016-04-27T03:27:38.940Z,4.2
2016-04-27T03:27:48.940Z,4.2
2016-04-27T03:27:58.940Z,4.3
2016-04-27T03:28:08.940Z,4.2
2016-04-27T03:28:18.940Z,4.2
2016-04-27T03:28:28.944Z,4.2
2016-04-27T03:28:38.944Z,4.2
2016-04-27T03:28:48.944Z,4.3
2016-04-27T03:28:58.944Z,4.2
2016-04-27T03:29:08.944Z,4.3
2016-04-27T03:29:18.960Z,4.2
2016-04-27T03:29:28.946Z,4.3
2016-04-27T03:29:38.946Z,4.2
2016-04-27T03:29:48.946Z,4.2
2016-04-27T03:29:58.946Z,4.2
2016-04-27T03:30:08.946Z,4.2
2016-04-27T03:30:18.946Z,4.2
2016-04-27T03:30:28.949Z,4.2
2016-04-27T03:30:38.965Z,4.2
2016-04-27T03:30:48.949Z,4.3
2016-04-27T03:30:58.949Z,4.3
2016-04-27T03:31:08.965Z,4.3
2016-04-27T03:31:18.949Z,4.2
2016-04-27T03:31:28.952Z,4.3
2016-04-27T03:31:38.952Z,4.3
2016-04-27T03:31:48.968Z,4.3
2016-04-27T03:31:58.968Z,4.4
2016-04-27T03:32:08.968Z,4.4
2016-04-27T03:32:18.968Z,4.4
2016-04-27T03:32:28.970Z,4.3
2016-04-27T03:32:38.970Z,4.4
2016-04-27T03:32:48.970Z,4.3
2016-04-27T03:32:58.970Z,4.4
2016-04-27T03:33:08.985Z,4.4
2016-04-27T03:33:18.970Z,4.3
2016-04-27T03:33:28.973Z,4.3
2016-04-27T03:33:38.973Z,4.4
2016-04-27T03:33:48.973Z,4.3
2016-04-27T03:33:58.973Z,4.4
2016-04-27T03:34:08.973Z,4.3
2016-04-27T03:34:18.973Z,4.4
2016-04-27T03:34:28.991Z,4.4
2016-04-27T03:34:38.976Z,4.3